Terminal Aerodrome Forecast
Issued by NWS

Home | Current Version | Previous Version | Text Only | Print | Product List | Glossary On
Versions: 1 2 3 4 5 6 7 8 9 10 11 12 13 14 15 16 17 18 19 20 21 22 23 24 25 26 27 28 29 30 31 32 33 34 35 36 37
000
FTAK31 PANC 162113 AAA
TAFADL
TAF AMD
PADL 162113Z 1621/1718 05015KT 6SM -RA BR SCT006 BKN012 OVC025
      TEMPO 1621/1624 4SM -RA BKN006
     FM170000 06011KT 6SM -RA BR SCT006 OVC015 WS015/14025KT
     FM170500 06011KT 6SM -RA BR BKN015 OVC025
     FM170900 03010KT P6SM -SHRA SCT015 BKN025=

USA.gov is the U.S. government's official web portal to all federal, state and local government web resources and services.